createdAt,value
2018-10-09T00:04:49.337Z,12.20
2018-10-09T00:09:53.672Z,12.10
2018-10-09T00:14:57.900Z,12.00
2018-10-09T00:20:02.069Z,12.10
2018-10-09T00:25:07.166Z,12.00
2018-10-09T00:30:11.369Z,12.00
2018-10-09T00:35:15.680Z,12.00
2018-10-09T00:40:19.894Z,12.10
2018-10-09T00:45:24.173Z,11.90
2018-10-09T00:50:28.535Z,11.90
2018-10-09T00:55:32.758Z,11.80
2018-10-09T01:00:37.085Z,11.90
2018-10-09T01:05:41.402Z,11.80
2018-10-09T01:10:45.679Z,11.80
2018-10-09T01:15:49.877Z,11.90
2018-10-09T01:20:54.123Z,11.90
2018-10-09T01:25:58.330Z,11.90
2018-10-09T01:31:02.540Z,11.90
2018-10-09T01:36:06.882Z,11.90
2018-10-09T01:41:11.074Z,11.80
2018-10-09T01:46:15.308Z,10.80
2018-10-09T01:51:19.510Z,10.20
2018-10-09T01:56:23.687Z,9.90
2018-10-09T02:01:27.880Z,10.20
2018-10-09T02:06:32.158Z,11.00
2018-10-09T02:11:36.503Z,11.10
2018-10-09T02:16:40.769Z,11.30
2018-10-09T02:21:45.004Z,11.50
2018-10-09T02:26:49.306Z,11.30
2018-10-09T02:31:53.549Z,11.00
2018-10-09T02:36:57.750Z,11.20
2018-10-09T02:42:02.161Z,10.80
2018-10-09T02:47:06.483Z,10.70
2018-10-09T02:52:10.726Z,11.10
2018-10-09T02:57:14.902Z,11.20
2018-10-09T03:02:19.218Z,11.20
2018-10-09T03:07:23.428Z,11.30
2018-10-09T03:12:27.579Z,11.40
2018-10-09T03:17:31.839Z,11.30
2018-10-09T03:22:36.083Z,11.30
2018-10-09T03:27:40.344Z,10.70
2018-10-09T03:32:44.527Z,10.80
2018-10-09T03:37:48.753Z,10.90
2018-10-09T03:42:53.040Z,11.00
2018-10-09T03:47:57.403Z,10.40
2018-10-09T03:53:01.857Z,11.00
2018-10-09T03:58:06.338Z,11.10
2018-10-09T04:03:10.531Z,11.00
2018-10-09T04:08:14.694Z,10.50
2018-10-09T04:13:19.038Z,11.00
2018-10-09T04:18:23.243Z,11.10
2018-10-09T04:23:27.432Z,11.00
2018-10-09T04:28:31.733Z,11.00
2018-10-09T04:33:36.010Z,10.80
2018-10-09T04:38:40.261Z,10.40
2018-10-09T04:43:44.603Z,10.30
2018-10-09T04:48:49.078Z,10.70
2018-10-09T04:53:53.257Z,10.80
2018-10-09T04:58:57.634Z,10.80
2018-10-09T05:04:01.864Z,10.00
2018-10-09T05:09:09.294Z,9.00
2018-10-09T05:14:13.982Z,9.10
2018-10-09T05:19:18.232Z,9.40
2018-10-09T05:24:22.585Z,9.10
2018-10-09T05:29:27.026Z,9.50
2018-10-09T05:34:31.486Z,8.90
2018-10-09T05:39:35.958Z,9.50
2018-10-09T05:44:40.519Z,9.90
2018-10-09T05:49:44.923Z,9.80
2018-10-09T05:54:49.371Z,9.90
2018-10-09T05:59:53.888Z,9.90
2018-10-09T06:04:58.220Z,10.00
2018-10-09T06:10:02.459Z,10.20
2018-10-09T06:15:06.971Z,9.90
2018-10-09T06:20:11.351Z,10.10
2018-10-09T06:25:15.616Z,10.10
2018-10-09T06:30:19.801Z,10.20
2018-10-09T06:35:24.040Z,9.90
2018-10-09T06:40:28.435Z,10.40
2018-10-09T06:45:34.237Z,9.90
2018-10-09T06:50:38.814Z,9.30
2018-10-09T06:55:43.256Z,9.20
2018-10-09T07:00:47.589Z,9.90
2018-10-09T07:05:51.796Z,10.30
2018-10-09T07:10:56.496Z,10.00
2018-10-09T07:16:06.419Z,9.90
2018-10-09T07:21:10.797Z,10.20
2018-10-09T07:26:14.973Z,10.50
2018-10-09T07:31:19.196Z,10.70
2018-10-09T07:36:23.506Z,10.80
2018-10-09T07:41:27.887Z,11.10
2018-10-09T07:46:32.076Z,11.20
2018-10-09T07:51:36.286Z,11.10
2018-10-09T07:56:40.492Z,11.20
2018-10-09T08:01:44.705Z,11.20
2018-10-09T08:06:49.216Z,11.50
2018-10-09T08:11:53.459Z,11.60
2018-10-09T08:16:57.708Z,11.50
2018-10-09T08:22:01.940Z,11.60
2018-10-09T08:27:06.355Z,11.60
2018-10-09T08:32:10.883Z,12.00
2018-10-09T08:37:15.077Z,12.00
2018-10-09T08:42:19.273Z,12.00
2018-10-09T08:47:23.548Z,12.20
2018-10-09T08:52:27.777Z,12.10
2018-10-09T08:57:32.001Z,12.30
2018-10-09T09:02:36.191Z,12.30
2018-10-09T09:07:40.575Z,12.40
2018-10-09T09:12:44.964Z,12.60
2018-10-09T09:17:49.165Z,12.80
2018-10-09T09:22:53.403Z,13.10
2018-10-09T09:27:57.623Z,13.40
2018-10-09T09:33:01.817Z,13.50
2018-10-09T09:38:05.951Z,13.60
2018-10-09T09:43:10.152Z,13.90
2018-10-09T09:48:14.370Z,14.10
2018-10-09T09:53:18.636Z,14.10
2018-10-09T09:58:22.994Z,14.20
2018-10-09T10:03:27.755Z,14.40
2018-10-09T10:08:31.897Z,14.60
2018-10-09T10:13:36.290Z,14.70
2018-10-09T10:18:40.540Z,14.80
2018-10-09T10:23:44.742Z,14.90
2018-10-09T10:28:48.921Z,14.90
2018-10-09T10:33:53.188Z,15.10
2018-10-09T10:38:57.523Z,15.20
2018-10-09T10:44:01.711Z,15.30
2018-10-09T10:49:08.939Z,15.50
2018-10-09T10:54:13.105Z,15.60
2018-10-09T10:59:17.309Z,15.80
2018-10-09T11:04:21.555Z,15.90
2018-10-09T11:09:25.966Z,16.00
2018-10-09T11:14:30.545Z,16.40
2018-10-09T11:19:34.841Z,16.70
2018-10-09T11:24:39.255Z,16.90
2018-10-09T11:29:43.595Z,17.10
2018-10-09T11:34:47.819Z,17.30
2018-10-09T11:39:52.121Z,18.10
2018-10-09T11:44:56.412Z,17.80
2018-10-09T11:50:04.429Z,17.80
2018-10-09T11:55:08.658Z,17.90
2018-10-09T12:00:12.982Z,18.00
2018-10-09T12:05:17.241Z,18.30
2018-10-09T12:10:21.497Z,18.50
2018-10-09T12:15:25.851Z,19.10
2018-10-09T12:20:30.189Z,18.70
2018-10-09T12:25:34.385Z,18.60
2018-10-09T12:30:39.833Z,18.40
2018-10-09T12:35:44.199Z,18.40
2018-10-09T12:40:48.685Z,18.50
2018-10-09T12:45:53.070Z,18.50
2018-10-09T12:50:57.334Z,18.40
2018-10-09T12:56:01.763Z,18.40
2018-10-09T13:01:06.170Z,18.30
2018-10-09T13:06:12.597Z,18.40
2018-10-09T13:11:16.894Z,18.50
2018-10-09T13:16:21.131Z,18.60
2018-10-09T13:21:25.525Z,18.50
2018-10-09T13:26:29.714Z,18.60
2018-10-09T13:31:33.976Z,18.70
2018-10-09T13:36:38.410Z,18.80
2018-10-09T13:41:42.612Z,18.80
2018-10-09T13:46:46.820Z,18.90
2018-10-09T13:51:51.061Z,18.90
2018-10-09T13:56:55.423Z,19.00
2018-10-09T14:01:59.815Z,19.00
2018-10-09T14:07:04.109Z,19.10
2018-10-09T14:12:08.490Z,19.10
2018-10-09T14:17:12.933Z,19.10
2018-10-09T14:22:17.604Z,19.20
2018-10-09T14:27:22.471Z,19.20
2018-10-09T14:32:26.934Z,19.30
2018-10-09T14:37:31.273Z,19.30
2018-10-09T14:42:35.711Z,19.30
2018-10-09T14:47:39.948Z,19.30
2018-10-09T14:52:44.578Z,19.40
2018-10-09T14:57:48.812Z,19.40
2018-10-09T15:02:53.147Z,19.50
2018-10-09T15:07:57.365Z,19.60
2018-10-09T15:13:01.759Z,19.50
2018-10-09T15:18:06.120Z,19.60
2018-10-09T15:23:10.521Z,19.70
2018-10-09T15:28:14.869Z,19.70
2018-10-09T15:33:19.203Z,19.70
2018-10-09T15:38:23.552Z,19.60
2018-10-09T15:43:28.234Z,19.60
2018-10-09T15:48:32.392Z,19.40
2018-10-09T15:53:36.706Z,19.40
2018-10-09T15:58:41.030Z,19.30
2018-10-09T16:03:45.247Z,19.10
2018-10-09T16:08:49.484Z,19.10
2018-10-09T16:13:53.694Z,19.10
2018-10-09T16:18:58.028Z,19.00
2018-10-09T16:24:02.296Z,19.00
2018-10-09T16:29:06.497Z,18.90
2018-10-09T16:34:10.676Z,18.80
2018-10-09T16:39:14.860Z,18.70
2018-10-09T16:44:19.084Z,18.70
2018-10-09T16:49:23.291Z,18.50
2018-10-09T16:54:27.675Z,18.40
2018-10-09T16:59:32.048Z,18.30
2018-10-09T17:04:36.653Z,18.20
2018-10-09T17:09:41.007Z,18.20
2018-10-09T17:14:45.543Z,18.50
2018-10-09T17:19:49.778Z,18.60
2018-10-09T17:24:53.934Z,18.40
2018-10-09T17:29:58.216Z,18.40
2018-10-09T17:35:02.357Z,18.30
2018-10-09T17:40:06.852Z,18.30
2018-10-09T17:45:11.109Z,18.30
2018-10-09T17:50:15.351Z,18.30
2018-10-09T17:55:19.536Z,18.20
2018-10-09T18:00:23.742Z,18.20
2018-10-09T18:05:28.008Z,18.00
2018-10-09T18:10:32.264Z,17.70
2018-10-09T18:15:36.569Z,17.80
2018-10-09T18:20:41.158Z,17.80
2018-10-09T18:25:46.316Z,17.70
2018-10-09T18:30:51.519Z,17.50
2018-10-09T18:35:55.883Z,17.40
2018-10-09T18:41:00.382Z,17.30
2018-10-09T18:46:04.718Z,17.20
2018-10-09T18:51:09.945Z,17.20
2018-10-09T18:56:14.311Z,17.10
2018-10-09T19:01:19.093Z,17.00
2018-10-09T19:06:23.839Z,17.00
2018-10-09T19:11:28.788Z,17.10
2018-10-09T19:16:34.566Z,17.00
2018-10-09T19:21:38.909Z,17.10
2018-10-09T19:26:43.191Z,17.00
2018-10-09T19:31:47.612Z,16.90
2018-10-09T19:36:52.984Z,16.70
2018-10-09T19:41:58.183Z,16.60
2018-10-09T19:47:03.312Z,16.60
2018-10-09T19:52:07.726Z,16.50
2018-10-09T19:57:12.575Z,16.60
2018-10-09T20:02:16.859Z,16.60
2018-10-09T20:07:21.218Z,16.50
2018-10-09T20:12:25.876Z,16.40
2018-10-09T20:17:30.220Z,16.40
2018-10-09T20:22:34.499Z,16.40
2018-10-09T20:27:38.865Z,16.40
2018-10-09T20:32:43.281Z,16.20
2018-10-09T20:37:47.491Z,16.20
2018-10-09T20:42:51.755Z,16.20
2018-10-09T20:47:56.649Z,16.10
2018-10-09T20:53:00.854Z,16.10
2018-10-09T20:58:05.162Z,15.90
2018-10-09T21:03:09.388Z,16.10
2018-10-09T21:08:13.601Z,16.00
2018-10-09T21:13:17.980Z,16.10
2018-10-09T21:18:22.424Z,16.00
2018-10-09T21:23:26.809Z,16.10
2018-10-09T21:28:31.275Z,15.90
2018-10-09T21:33:35.820Z,15.60
2018-10-09T21:38:40.066Z,15.40
2018-10-09T21:43:44.355Z,15.50
2018-10-09T21:48:48.635Z,15.50
2018-10-09T21:53:52.860Z,15.20
2018-10-09T21:58:57.185Z,15.20
2018-10-09T22:04:01.432Z,15.30
2018-10-09T22:09:07.496Z,15.20
2018-10-09T22:14:11.804Z,15.20
2018-10-09T22:19:16.015Z,15.20
2018-10-09T22:24:20.647Z,15.20
2018-10-09T22:29:25.729Z,15.20
2018-10-09T22:34:29.962Z,15.10
2018-10-09T22:39:34.129Z,15.00
2018-10-09T22:44:38.629Z,14.80
2018-10-09T22:49:42.794Z,14.70
2018-10-09T22:54:47.121Z,14.30
2018-10-09T22:59:51.412Z,14.40
2018-10-09T23:04:55.750Z,14.30
2018-10-09T23:09:59.967Z,14.10
2018-10-09T23:15:05.725Z,13.60
2018-10-09T23:20:10.080Z,14.00
2018-10-09T23:25:14.632Z,14.10
2018-10-09T23:30:18.940Z,13.80
2018-10-09T23:35:23.557Z,13.60
2018-10-09T23:40:27.835Z,13.50
2018-10-09T23:45:32.002Z,13.40
2018-10-09T23:50:38.307Z,13.50
2018-10-09T23:55:42.568Z,13.30
